sensor_id;sensor_type;location;lat;lon;timestamp;temperature;humidity
19206;DHT22;59358;52.134;5.596;2023-08-24T00:01:51;17.10;99.90
19206;DHT22;59358;52.134;5.596;2023-08-24T00:04:17;17.00;99.90
19206;DHT22;59358;52.134;5.596;2023-08-24T00:06:44;17.00;99.90
19206;DHT22;59358;52.134;5.596;2023-08-24T00:09:11;17.00;99.90
19206;DHT22;59358;52.134;5.596;2023-08-24T00:11:38;16.90;99.90
19206;DHT22;59358;52.134;5.596;2023-08-24T00:14:06;16.90;99.90
19206;DHT22;59358;52.134;5.596;2023-08-24T00:16:33;16.80;99.90
19206;DHT22;59358;52.134;5.596;2023-08-24T00:19:00;16.90;99.90
19206;DHT22;59358;52.134;5.596;2023-08-24T00:21:27;16.90;99.90
19206;DHT22;59358;52.134;5.596;2023-08-24T00:23:54;16.90;99.90
19206;DHT22;59358;52.134;5.596;2023-08-24T00:26:21;16.90;99.90
19206;DHT22;59358;52.134;5.596;2023-08-24T00:28:49;16.90;99.90
19206;DHT22;59358;52.134;5.596;2023-08-24T00:31:17;16.90;99.90
19206;DHT22;59358;52.134;5.596;2023-08-24T00:33:44;17.00;99.90
19206;DHT22;59358;52.134;5.596;2023-08-24T00:36:11;17.00;99.90
19206;DHT22;59358;52.134;5.596;2023-08-24T00:38:38;17.00;99.90
19206;DHT22;59358;52.134;5.596;2023-08-24T00:41:05;17.10;99.90
19206;DHT22;59358;52.134;5.596;2023-08-24T00:43:32;17.10;99.90
19206;DHT22;59358;52.134;5.596;2023-08-24T00:46:00;17.00;99.90
19206;DHT22;59358;52.134;5.596;2023-08-24T00:48:29;17.00;99.90
19206;DHT22;59358;52.134;5.596;2023-08-24T00:50:59;17.00;99.90
19206;DHT22;59358;52.134;5.596;2023-08-24T00:53:29;17.00;99.90
19206;DHT22;59358;52.134;5.596;2023-08-24T00:55:56;17.00;99.90
19206;DHT22;59358;52.134;5.596;2023-08-24T00:58:23;17.00;99.90
19206;DHT22;59358;52.134;5.596;2023-08-24T01:00:51;17.00;99.90
19206;DHT22;59358;52.134;5.596;2023-08-24T01:03:19;17.00;99.90
19206;DHT22;59358;52.134;5.596;2023-08-24T01:05:47;17.00;99.90
19206;DHT22;59358;52.134;5.596;2023-08-24T01:08:14;17.10;99.90
19206;DHT22;59358;52.134;5.596;2023-08-24T01:10:48;17.00;99.90
19206;DHT22;59358;52.134;5.596;2023-08-24T01:13:21;17.10;99.90
19206;DHT22;59358;52.134;5.596;2023-08-24T01:15:58;17.00;99.90
19206;DHT22;59358;52.134;5.596;2023-08-24T01:18:26;17.00;99.90
19206;DHT22;59358;52.134;5.596;2023-08-24T01:20:56;17.00;99.90
19206;DHT22;59358;52.134;5.596;2023-08-24T01:23:34;16.90;99.90
19206;DHT22;59358;52.134;5.596;2023-08-24T01:26:12;16.90;99.90
19206;DHT22;59358;52.134;5.596;2023-08-24T01:28:41;16.80;99.90
19206;DHT22;59358;52.134;5.596;2023-08-24T01:31:08;16.80;99.90
19206;DHT22;59358;52.134;5.596;2023-08-24T01:33:35;16.70;99.90
19206;DHT22;59358;52.134;5.596;2023-08-24T01:36:02;16.70;99.90
19206;DHT22;59358;52.134;5.596;2023-08-24T01:38:30;16.70;99.90
19206;DHT22;59358;52.134;5.596;2023-08-24T01:41:02;16.80;99.90
19206;DHT22;59358;52.134;5.596;2023-08-24T01:43:35;16.70;99.90
19206;DHT22;59358;52.134;5.596;2023-08-24T01:46:04;16.70;99.90
19206;DHT22;59358;52.134;5.596;2023-08-24T01:48:32;16.70;99.90
19206;DHT22;59358;52.134;5.596;2023-08-24T01:51:00;16.70;99.90
19206;DHT22;59358;52.134;5.596;2023-08-24T01:53:29;16.80;99.90
19206;DHT22;59358;52.134;5.596;2023-08-24T01:55:56;16.80;99.90
19206;DHT22;59358;52.134;5.596;2023-08-24T01:58:23;16.80;99.90
19206;DHT22;59358;52.134;5.596;2023-08-24T02:00:51;16.80;99.90
19206;DHT22;59358;52.134;5.596;2023-08-24T02:03:18;16.90;99.90
19206;DHT22;59358;52.134;5.596;2023-08-24T02:05:45;17.00;99.90
19206;DHT22;59358;52.134;5.596;2023-08-24T02:08:12;17.00;99.90
19206;DHT22;59358;52.134;5.596;2023-08-24T02:10:39;17.10;99.90
19206;DHT22;59358;52.134;5.596;2023-08-24T02:13:05;17.10;99.90
19206;DHT22;59358;52.134;5.596;2023-08-24T02:15:32;17.10;99.90
19206;DHT22;59358;52.134;5.596;2023-08-24T02:18:00;17.10;99.90
19206;DHT22;59358;52.134;5.596;2023-08-24T02:20:27;17.10;99.90
19206;DHT22;59358;52.134;5.596;2023-08-24T02:22:54;17.10;99.90
19206;DHT22;59358;52.134;5.596;2023-08-24T02:25:21;17.10;99.90
19206;DHT22;59358;52.134;5.596;2023-08-24T02:27:48;17.20;99.90
19206;DHT22;59358;52.134;5.596;2023-08-24T02:30:15;17.20;99.90
19206;DHT22;59358;52.134;5.596;2023-08-24T02:32:42;17.20;99.90
19206;DHT22;59358;52.134;5.596;2023-08-24T02:35:10;17.20;99.90
19206;DHT22;59358;52.134;5.596;2023-08-24T02:37:37;17.20;99.90
19206;DHT22;59358;52.134;5.596;2023-08-24T02:40:05;17.10;99.90
19206;DHT22;59358;52.134;5.596;2023-08-24T02:42:34;17.10;99.90
19206;DHT22;59358;52.134;5.596;2023-08-24T02:45:02;17.20;99.90
19206;DHT22;59358;52.134;5.596;2023-08-24T02:47:29;17.10;99.90
19206;DHT22;59358;52.134;5.596;2023-08-24T02:49:58;17.00;99.90
19206;DHT22;59358;52.134;5.596;2023-08-24T02:52:27;17.00;99.90
19206;DHT22;59358;52.134;5.596;2023-08-24T02:54:54;17.00;99.90
19206;DHT22;59358;52.134;5.596;2023-08-24T02:57:22;16.80;99.90
19206;DHT22;59358;52.134;5.596;2023-08-24T02:59:49;16.80;99.90
19206;DHT22;59358;52.134;5.596;2023-08-24T03:02:16;16.80;99.90
19206;DHT22;59358;52.134;5.596;2023-08-24T03:04:43;16.90;99.90
19206;DHT22;59358;52.134;5.596;2023-08-24T03:07:10;16.90;99.90
19206;DHT22;59358;52.134;5.596;2023-08-24T03:09:39;16.90;99.90
19206;DHT22;59358;52.134;5.596;2023-08-24T03:12:06;16.90;99.90
19206;DHT22;59358;52.134;5.596;2023-08-24T03:14:33;16.90;99.90
19206;DHT22;59358;52.134;5.596;2023-08-24T03:17:00;16.90;99.90
19206;DHT22;59358;52.134;5.596;2023-08-24T03:19:26;16.90;99.90
19206;DHT22;59358;52.134;5.596;2023-08-24T03:21:53;16.80;99.90
19206;DHT22;59358;52.134;5.596;2023-08-24T03:24:20;16.80;99.90
19206;DHT22;59358;52.134;5.596;2023-08-24T03:26:48;16.90;99.90
19206;DHT22;59358;52.134;5.596;2023-08-24T03:29:15;16.90;99.90
19206;DHT22;59358;52.134;5.596;2023-08-24T03:31:42;16.90;99.90
19206;DHT22;59358;52.134;5.596;2023-08-24T03:34:08;16.90;99.90
19206;DHT22;59358;52.134;5.596;2023-08-24T03:36:35;16.80;99.90
19206;DHT22;59358;52.134;5.596;2023-08-24T03:39:03;16.80;99.90
19206;DHT22;59358;52.134;5.596;2023-08-24T03:41:30;16.80;99.90
19206;DHT22;59358;52.134;5.596;2023-08-24T03:43:58;16.70;99.90
19206;DHT22;59358;52.134;5.596;2023-08-24T03:46:25;16.70;99.90
19206;DHT22;59358;52.134;5.596;2023-08-24T03:48:52;16.80;99.90
19206;DHT22;59358;52.134;5.596;2023-08-24T03:51:19;16.70;99.90
19206;DHT22;59358;52.134;5.596;2023-08-24T03:53:47;16.70;99.90
19206;DHT22;59358;52.134;5.596;2023-08-24T03:56:14;16.70;99.90
19206;DHT22;59358;52.134;5.596;2023-08-24T03:58:41;16.60;99.90
19206;DHT22;59358;52.134;5.596;2023-08-24T04:01:11;16.60;99.90
19206;DHT22;59358;52.134;5.596;2023-08-24T04:03:38;16.60;99.90
19206;DHT22;59358;52.134;5.596;2023-08-24T04:06:05;16.60;99.90
19206;DHT22;59358;52.134;5.596;2023-08-24T04:08:33;16.60;99.90
19206;DHT22;59358;52.134;5.596;2023-08-24T04:11:00;16.60;99.90
19206;DHT22;59358;52.134;5.596;2023-08-24T04:13:26;16.50;99.90
19206;DHT22;59358;52.134;5.596;2023-08-24T04:15:53;16.60;99.90
19206;DHT22;59358;52.134;5.596;2023-08-24T04:18:22;16.60;99.90
19206;DHT22;59358;52.134;5.596;2023-08-24T04:20:51;16.60;99.90
19206;DHT22;59358;52.134;5.596;2023-08-24T04:23:24;16.50;99.90
19206;DHT22;59358;52.134;5.596;2023-08-24T04:25:50;16.50;99.90
19206;DHT22;59358;52.134;5.596;2023-08-24T04:28:17;16.50;99.90
19206;DHT22;59358;52.134;5.596;2023-08-24T04:30:49;16.50;99.90
19206;DHT22;59358;52.134;5.596;2023-08-24T04:33:16;16.50;99.90
19206;DHT22;59358;52.134;5.596;2023-08-24T04:35:46;16.60;99.90
19206;DHT22;59358;52.134;5.596;2023-08-24T04:38:13;16.50;99.90
19206;DHT22;59358;52.134;5.596;2023-08-24T04:40:48;16.50;99.90
19206;DHT22;59358;52.134;5.596;2023-08-24T04:43:15;16.60;99.90
19206;DHT22;59358;52.134;5.596;2023-08-24T04:45:42;16.60;99.90
19206;DHT22;59358;52.134;5.596;2023-08-24T04:48:09;16.60;99.90
19206;DHT22;59358;52.134;5.596;2023-08-24T04:50:36;16.60;99.90
19206;DHT22;59358;52.134;5.596;2023-08-24T04:53:04;16.60;99.90
19206;DHT22;59358;52.134;5.596;2023-08-24T04:55:31;16.60;99.90
19206;DHT22;59358;52.134;5.596;2023-08-24T04:57:58;16.60;99.90
19206;DHT22;59358;52.134;5.596;2023-08-24T05:00:25;16.70;99.90
19206;DHT22;59358;52.134;5.596;2023-08-24T05:02:52;16.60;99.90
19206;DHT22;59358;52.134;5.596;2023-08-24T05:05:19;16.70;99.90
19206;DHT22;59358;52.134;5.596;2023-08-24T05:07:45;16.70;99.90
19206;DHT22;59358;52.134;5.596;2023-08-24T05:10:14;16.70;99.90
19206;DHT22;59358;52.134;5.596;2023-08-24T05:12:40;16.70;99.90
19206;DHT22;59358;52.134;5.596;2023-08-24T05:15:08;16.80;99.90
19206;DHT22;59358;52.134;5.596;2023-08-24T05:17:36;16.80;99.90
19206;DHT22;59358;52.134;5.596;2023-08-24T05:20:03;16.90;99.90
19206;DHT22;59358;52.134;5.596;2023-08-24T05:22:30;16.90;99.90
19206;DHT22;59358;52.134;5.596;2023-08-24T05:24:57;16.90;99.90
19206;DHT22;59358;52.134;5.596;2023-08-24T05:27:25;17.00;99.90
19206;DHT22;59358;52.134;5.596;2023-08-24T05:29:52;17.00;99.90
19206;DHT22;59358;52.134;5.596;2023-08-24T05:32:19;17.00;99.90
19206;DHT22;59358;52.134;5.596;2023-08-24T05:34:45;17.10;99.90
19206;DHT22;59358;52.134;5.596;2023-08-24T05:37:12;17.10;99.90
19206;DHT22;59358;52.134;5.596;2023-08-24T05:39:39;17.10;99.90
19206;DHT22;59358;52.134;5.596;2023-08-24T05:42:07;17.10;99.90
19206;DHT22;59358;52.134;5.596;2023-08-24T05:44:35;17.20;99.90
19206;DHT22;59358;52.134;5.596;2023-08-24T05:47:02;17.30;99.90
19206;DHT22;59358;52.134;5.596;2023-08-24T05:49:29;17.30;99.90
19206;DHT22;59358;52.134;5.596;2023-08-24T05:51:56;17.40;99.90
19206;DHT22;59358;52.134;5.596;2023-08-24T05:54:23;17.40;99.90
19206;DHT22;59358;52.134;5.596;2023-08-24T05:56:50;17.50;99.90
19206;DHT22;59358;52.134;5.596;2023-08-24T05:59:17;17.50;99.90
19206;DHT22;59358;52.134;5.596;2023-08-24T06:01:45;17.60;99.90
19206;DHT22;59358;52.134;5.596;2023-08-24T06:04:11;17.60;99.90
19206;DHT22;59358;52.134;5.596;2023-08-24T06:06:38;17.60;99.90
19206;DHT22;59358;52.134;5.596;2023-08-24T06:09:05;17.70;99.90
19206;DHT22;59358;52.134;5.596;2023-08-24T06:11:32;17.80;99.90
19206;DHT22;59358;52.134;5.596;2023-08-24T06:13:59;17.90;99.90
19206;DHT22;59358;52.134;5.596;2023-08-24T06:16:27;17.90;99.90
19206;DHT22;59358;52.134;5.596;2023-08-24T06:18:55;18.10;99.90
19206;DHT22;59358;52.134;5.596;2023-08-24T06:21:22;18.20;99.90
19206;DHT22;59358;52.134;5.596;2023-08-24T06:23:49;18.30;99.90
19206;DHT22;59358;52.134;5.596;2023-08-24T06:26:17;18.40;99.90
19206;DHT22;59358;52.134;5.596;2023-08-24T06:28:44;18.50;99.90
19206;DHT22;59358;52.134;5.596;2023-08-24T06:31:11;18.60;99.90
19206;DHT22;59358;52.134;5.596;2023-08-24T06:33:38;18.70;99.90
19206;DHT22;59358;52.134;5.596;2023-08-24T06:36:07;18.80;99.90
19206;DHT22;59358;52.134;5.596;2023-08-24T06:38:34;18.80;99.90
19206;DHT22;59358;52.134;5.596;2023-08-24T06:41:01;18.90;99.90
19206;DHT22;59358;52.134;5.596;2023-08-24T06:43:28;19.00;99.90
19206;DHT22;59358;52.134;5.596;2023-08-24T06:45:55;19.20;99.90
19206;DHT22;59358;52.134;5.596;2023-08-24T06:48:23;19.20;99.90
19206;DHT22;59358;52.134;5.596;2023-08-24T06:50:51;19.30;99.90
19206;DHT22;59358;52.134;5.596;2023-08-24T06:53:19;19.40;99.90
19206;DHT22;59358;52.134;5.596;2023-08-24T06:55:46;19.40;99.90
19206;DHT22;59358;52.134;5.596;2023-08-24T06:58:13;19.60;99.90
19206;DHT22;59358;52.134;5.596;2023-08-24T07:00:40;19.80;99.90
19206;DHT22;59358;52.134;5.596;2023-08-24T07:03:06;19.90;99.90
19206;DHT22;59358;52.134;5.596;2023-08-24T07:05:33;20.00;99.90
19206;DHT22;59358;52.134;5.596;2023-08-24T07:08:00;20.10;99.90
19206;DHT22;59358;52.134;5.596;2023-08-24T07:10:30;20.20;99.90
19206;DHT22;59358;52.134;5.596;2023-08-24T07:12:57;20.30;99.90
19206;DHT22;59358;52.134;5.596;2023-08-24T07:15:23;20.50;99.90
19206;DHT22;59358;52.134;5.596;2023-08-24T07:17:50;20.60;99.90
19206;DHT22;59358;52.134;5.596;2023-08-24T07:20:17;20.60;99.90
19206;DHT22;59358;52.134;5.596;2023-08-24T07:22:45;20.70;99.90
19206;DHT22;59358;52.134;5.596;2023-08-24T07:25:12;20.90;99.90
19206;DHT22;59358;52.134;5.596;2023-08-24T07:27:41;21.00;99.90
19206;DHT22;59358;52.134;5.596;2023-08-24T07:30:10;21.10;99.90
19206;DHT22;59358;52.134;5.596;2023-08-24T07:32:37;21.20;99.90
19206;DHT22;59358;52.134;5.596;2023-08-24T07:35:04;21.40;99.90
19206;DHT22;59358;52.134;5.596;2023-08-24T07:37:32;21.60;99.90
19206;DHT22;59358;52.134;5.596;2023-08-24T07:39:59;21.70;99.90
19206;DHT22;59358;52.134;5.596;2023-08-24T07:42:26;21.80;99.90
19206;DHT22;59358;52.134;5.596;2023-08-24T07:44:54;22.00;99.90
19206;DHT22;59358;52.134;5.596;2023-08-24T07:47:21;22.10;99.90
19206;DHT22;59358;52.134;5.596;2023-08-24T07:49:48;22.10;99.90
19206;DHT22;59358;52.134;5.596;2023-08-24T07:52:15;22.20;99.90
19206;DHT22;59358;52.134;5.596;2023-08-24T07:54:42;22.30;99.90
19206;DHT22;59358;52.134;5.596;2023-08-24T07:57:10;22.50;99.90
19206;DHT22;59358;52.134;5.596;2023-08-24T07:59:36;22.70;99.90
19206;DHT22;59358;52.134;5.596;2023-08-24T08:02:05;22.70;99.90
19206;DHT22;59358;52.134;5.596;2023-08-24T08:04:32;22.90;99.90
19206;DHT22;59358;52.134;5.596;2023-08-24T08:06:59;23.20;99.90
19206;DHT22;59358;52.134;5.596;2023-08-24T08:09:26;23.40;99.90
19206;DHT22;59358;52.134;5.596;2023-08-24T08:11:52;23.60;99.90
19206;DHT22;59358;52.134;5.596;2023-08-24T08:14:19;23.70;99.90
19206;DHT22;59358;52.134;5.596;2023-08-24T08:16:46;23.80;99.90
19206;DHT22;59358;52.134;5.596;2023-08-24T08:19:15;23.90;99.90
19206;DHT22;59358;52.134;5.596;2023-08-24T08:21:43;24.20;99.90
19206;DHT22;59358;52.134;5.596;2023-08-24T08:24:10;24.40;99.90
19206;DHT22;59358;52.134;5.596;2023-08-24T08:26:37;24.50;99.90
19206;DHT22;59358;52.134;5.596;2023-08-24T08:29:04;24.80;99.90
19206;DHT22;59358;52.134;5.596;2023-08-24T08:31:32;25.00;99.90
19206;DHT22;59358;52.134;5.596;2023-08-24T08:33:58;25.20;99.90
19206;DHT22;59358;52.134;5.596;2023-08-24T08:36:27;25.30;99.90
19206;DHT22;59358;52.134;5.596;2023-08-24T08:38:53;25.40;99.90
19206;DHT22;59358;52.134;5.596;2023-08-24T08:41:22;25.50;99.90
19206;DHT22;59358;52.134;5.596;2023-08-24T08:43:54;25.60;99.90
19206;DHT22;59358;52.134;5.596;2023-08-24T08:46:21;25.60;99.90
19206;DHT22;59358;52.134;5.596;2023-08-24T08:48:49;25.70;99.90
19206;DHT22;59358;52.134;5.596;2023-08-24T08:51:17;26.00;99.90
19206;DHT22;59358;52.134;5.596;2023-08-24T08:53:46;26.10;99.90
19206;DHT22;59358;52.134;5.596;2023-08-24T08:56:13;26.10;99.90
19206;DHT22;59358;52.134;5.596;2023-08-24T08:58:41;26.00;99.90
19206;DHT22;59358;52.134;5.596;2023-08-24T09:01:09;26.10;99.90
19206;DHT22;59358;52.134;5.596;2023-08-24T09:03:36;26.30;99.90
19206;DHT22;59358;52.134;5.596;2023-08-24T09:06:04;26.50;99.90
19206;DHT22;59358;52.134;5.596;2023-08-24T09:08:32;26.60;99.90
19206;DHT22;59358;52.134;5.596;2023-08-24T09:11:00;26.70;99.90
19206;DHT22;59358;52.134;5.596;2023-08-24T09:13:28;26.80;99.90
19206;DHT22;59358;52.134;5.596;2023-08-24T09:16:03;26.70;99.90
19206;DHT22;59358;52.134;5.596;2023-08-24T09:18:35;26.70;99.90
19206;DHT22;59358;52.134;5.596;2023-08-24T09:21:08;26.70;99.90
19206;DHT22;59358;52.134;5.596;2023-08-24T09:23:35;27.00;99.90
19206;DHT22;59358;52.134;5.596;2023-08-24T09:26:03;27.30;99.90
19206;DHT22;59358;52.134;5.596;2023-08-24T09:28:31;27.50;99.90
19206;DHT22;59358;52.134;5.596;2023-08-24T09:31:00;27.50;99.90
19206;DHT22;59358;52.134;5.596;2023-08-24T09:33:29;27.70;99.90
19206;DHT22;59358;52.134;5.596;2023-08-24T09:35:56;27.80;99.90
19206;DHT22;59358;52.134;5.596;2023-08-24T09:38:27;28.00;99.90
19206;DHT22;59358;52.134;5.596;2023-08-24T09:40:54;28.30;99.90
19206;DHT22;59358;52.134;5.596;2023-08-24T09:43:23;28.40;99.90
19206;DHT22;59358;52.134;5.596;2023-08-24T09:45:52;28.50;99.90
19206;DHT22;59358;52.134;5.596;2023-08-24T09:48:20;28.70;99.90
19206;DHT22;59358;52.134;5.596;2023-08-24T09:50:49;28.90;99.90
19206;DHT22;59358;52.134;5.596;2023-08-24T09:53:18;28.90;99.90
19206;DHT22;59358;52.134;5.596;2023-08-24T09:55:54;28.70;99.90
19206;DHT22;59358;52.134;5.596;2023-08-24T09:58:23;28.70;99.90
19206;DHT22;59358;52.134;5.596;2023-08-24T10:00:51;28.90;99.90
19206;DHT22;59358;52.134;5.596;2023-08-24T10:03:19;29.20;99.90
19206;DHT22;59358;52.134;5.596;2023-08-24T10:05:48;29.10;99.90
19206;DHT22;59358;52.134;5.596;2023-08-24T10:08:17;28.90;99.90
19206;DHT22;59358;52.134;5.596;2023-08-24T10:10:46;28.70;99.90
19206;DHT22;59358;52.134;5.596;2023-08-24T10:13:20;28.50;99.90
19206;DHT22;59358;52.134;5.596;2023-08-24T10:15:50;28.40;99.90
19206;DHT22;59358;52.134;5.596;2023-08-24T10:18:18;28.30;99.90
19206;DHT22;59358;52.134;5.596;2023-08-24T10:20:47;28.20;99.90
19206;DHT22;59358;52.134;5.596;2023-08-24T10:23:15;28.10;99.90
19206;DHT22;59358;52.134;5.596;2023-08-24T10:25:44;28.00;99.90
19206;DHT22;59358;52.134;5.596;2023-08-24T10:28:14;28.10;99.90
19206;DHT22;59358;52.134;5.596;2023-08-24T10:30:41;28.00;99.90
19206;DHT22;59358;52.134;5.596;2023-08-24T10:33:11;27.70;99.90
19206;DHT22;59358;52.134;5.596;2023-08-24T10:35:39;27.50;99.90
19206;DHT22;59358;52.134;5.596;2023-08-24T10:38:06;27.20;99.90
19206;DHT22;59358;52.134;5.596;2023-08-24T10:40:34;27.00;99.90
19206;DHT22;59358;52.134;5.596;2023-08-24T10:43:04;27.00;99.90
19206;DHT22;59358;52.134;5.596;2023-08-24T10:45:54;26.80;99.90
19206;DHT22;59358;52.134;5.596;2023-08-24T10:48:24;26.70;99.90
19206;DHT22;59358;52.134;5.596;2023-08-24T10:51:18;26.60;99.90
19206;DHT22;59358;52.134;5.596;2023-08-24T10:53:48;26.70;99.90
19206;DHT22;59358;52.134;5.596;2023-08-24T10:56:18;26.60;99.90
19206;DHT22;59358;52.134;5.596;2023-08-24T10:58:46;26.50;99.90
19206;DHT22;59358;52.134;5.596;2023-08-24T11:01:17;26.50;99.90
19206;DHT22;59358;52.134;5.596;2023-08-24T11:03:51;26.40;99.90
19206;DHT22;59358;52.134;5.596;2023-08-24T11:06:18;26.30;99.90
19206;DHT22;59358;52.134;5.596;2023-08-24T11:08:47;26.30;99.90
19206;DHT22;59358;52.134;5.596;2023-08-24T11:11:20;26.20;99.90
19206;DHT22;59358;52.134;5.596;2023-08-24T11:14:15;26.40;99.90
19206;DHT22;59358;52.134;5.596;2023-08-24T11:16:44;26.40;99.90
19206;DHT22;59358;52.134;5.596;2023-08-24T11:19:13;26.50;99.90
19206;DHT22;59358;52.134;5.596;2023-08-24T11:21:41;26.40;99.90
19206;DHT22;59358;52.134;5.596;2023-08-24T11:24:09;26.50;99.90
19206;DHT22;59358;52.134;5.596;2023-08-24T11:26:39;26.70;99.90
19206;DHT22;59358;52.134;5.596;2023-08-24T11:29:07;26.60;99.90
19206;DHT22;59358;52.134;5.596;2023-08-24T11:31:34;26.60;99.90
19206;DHT22;59358;52.134;5.596;2023-08-24T11:34:01;26.80;99.90
19206;DHT22;59358;52.134;5.596;2023-08-24T11:36:31;26.60;99.90
19206;DHT22;59358;52.134;5.596;2023-08-24T11:38:59;26.80;99.90
19206;DHT22;59358;52.134;5.596;2023-08-24T11:41:26;26.80;99.90
19206;DHT22;59358;52.134;5.596;2023-08-24T11:43:59;26.90;99.90
19206;DHT22;59358;52.134;5.596;2023-08-24T11:46:29;27.00;99.90
19206;DHT22;59358;52.134;5.596;2023-08-24T11:48:57;27.00;99.90
19206;DHT22;59358;52.134;5.596;2023-08-24T11:51:24;27.00;99.90
19206;DHT22;59358;52.134;5.596;2023-08-24T11:53:53;27.10;99.90
19206;DHT22;59358;52.134;5.596;2023-08-24T11:56:20;27.00;99.90
19206;DHT22;59358;52.134;5.596;2023-08-24T11:58:50;27.10;99.90
19206;DHT22;59358;52.134;5.596;2023-08-24T12:01:17;27.20;99.90
19206;DHT22;59358;52.134;5.596;2023-08-24T12:03:44;27.40;99.90
19206;DHT22;59358;52.134;5.596;2023-08-24T12:06:12;27.60;99.90
19206;DHT22;59358;52.134;5.596;2023-08-24T12:08:40;27.80;99.90
19206;DHT22;59358;52.134;5.596;2023-08-24T12:11:13;27.90;99.90
19206;DHT22;59358;52.134;5.596;2023-08-24T12:13:43;28.00;99.90
19206;DHT22;59358;52.134;5.596;2023-08-24T12:16:12;28.00;99.90
19206;DHT22;59358;52.134;5.596;2023-08-24T12:18:47;28.30;99.90
19206;DHT22;59358;52.134;5.596;2023-08-24T12:21:15;28.50;99.90
19206;DHT22;59358;52.134;5.596;2023-08-24T12:23:41;28.90;99.90
19206;DHT22;59358;52.134;5.596;2023-08-24T12:26:18;29.20;99.90
19206;DHT22;59358;52.134;5.596;2023-08-24T12:28:49;29.20;99.90
19206;DHT22;59358;52.134;5.596;2023-08-24T12:31:17;29.10;99.90
19206;DHT22;59358;52.134;5.596;2023-08-24T12:33:44;29.10;99.90
19206;DHT22;59358;52.134;5.596;2023-08-24T12:36:11;28.90;99.90
19206;DHT22;59358;52.134;5.596;2023-08-24T12:38:38;28.50;99.90
19206;DHT22;59358;52.134;5.596;2023-08-24T12:41:07;28.60;99.90
19206;DHT22;59358;52.134;5.596;2023-08-24T12:43:35;28.70;99.90
19206;DHT22;59358;52.134;5.596;2023-08-24T12:46:02;28.80;99.90
19206;DHT22;59358;52.134;5.596;2023-08-24T12:48:29;28.70;99.90
19206;DHT22;59358;52.134;5.596;2023-08-24T12:50:56;28.70;99.90
19206;DHT22;59358;52.134;5.596;2023-08-24T12:53:23;28.90;99.90
19206;DHT22;59358;52.134;5.596;2023-08-24T12:55:50;28.80;99.90
19206;DHT22;59358;52.134;5.596;2023-08-24T12:58:17;28.50;99.90
19206;DHT22;59358;52.134;5.596;2023-08-24T13:00:46;28.30;99.90
19206;DHT22;59358;52.134;5.596;2023-08-24T13:03:14;28.10;99.90
19206;DHT22;59358;52.134;5.596;2023-08-24T13:05:41;28.10;99.90
19206;DHT22;59358;52.134;5.596;2023-08-24T13:08:08;28.00;99.90
19206;DHT22;59358;52.134;5.596;2023-08-24T13:10:35;28.00;99.90
19206;DHT22;59358;52.134;5.596;2023-08-24T13:13:02;28.10;99.90
19206;DHT22;59358;52.134;5.596;2023-08-24T13:15:29;28.40;99.90
19206;DHT22;59358;52.134;5.596;2023-08-24T13:17:57;28.20;99.90
19206;DHT22;59358;52.134;5.596;2023-08-24T13:20:24;28.10;99.90
19206;DHT22;59358;52.134;5.596;2023-08-24T13:22:52;28.20;99.90
19206;DHT22;59358;52.134;5.596;2023-08-24T13:25:19;28.40;99.90
19206;DHT22;59358;52.134;5.596;2023-08-24T13:27:46;28.80;99.90
19206;DHT22;59358;52.134;5.596;2023-08-24T13:30:14;29.20;99.90
19206;DHT22;59358;52.134;5.596;2023-08-24T13:32:40;29.50;99.90
19206;DHT22;59358;52.134;5.596;2023-08-24T13:35:09;29.80;99.90
19206;DHT22;59358;52.134;5.596;2023-08-24T13:37:36;29.90;99.90
19206;DHT22;59358;52.134;5.596;2023-08-24T13:40:03;30.20;99.90
19206;DHT22;59358;52.134;5.596;2023-08-24T13:42:31;30.40;99.90
19206;DHT22;59358;52.134;5.596;2023-08-24T13:44:57;30.20;99.90
19206;DHT22;59358;52.134;5.596;2023-08-24T13:47:26;30.20;99.90
19206;DHT22;59358;52.134;5.596;2023-08-24T13:49:53;30.30;99.90
19206;DHT22;59358;52.134;5.596;2023-08-24T13:52:21;30.30;99.90
19206;DHT22;59358;52.134;5.596;2023-08-24T13:54:48;30.10;99.90
19206;DHT22;59358;52.134;5.596;2023-08-24T13:57:15;30.10;99.90
19206;DHT22;59358;52.134;5.596;2023-08-24T13:59:42;30.20;99.90
19206;DHT22;59358;52.134;5.596;2023-08-24T14:02:09;29.90;99.90
19206;DHT22;59358;52.134;5.596;2023-08-24T14:04:37;29.90;99.90
19206;DHT22;59358;52.134;5.596;2023-08-24T14:07:05;29.80;99.90
19206;DHT22;59358;52.134;5.596;2023-08-24T14:09:33;29.60;99.90
19206;DHT22;59358;52.134;5.596;2023-08-24T14:12:00;29.30;99.90
19206;DHT22;59358;52.134;5.596;2023-08-24T14:14:27;28.90;99.90
19206;DHT22;59358;52.134;5.596;2023-08-24T14:16:54;28.50;99.90
19206;DHT22;59358;52.134;5.596;2023-08-24T14:19:21;28.10;99.90
19206;DHT22;59358;52.134;5.596;2023-08-24T14:21:48;28.10;99.90
19206;DHT22;59358;52.134;5.596;2023-08-24T14:24:15;28.00;99.90
19206;DHT22;59358;52.134;5.596;2023-08-24T14:26:43;27.60;99.90
19206;DHT22;59358;52.134;5.596;2023-08-24T14:29:12;27.70;99.90
19206;DHT22;59358;52.134;5.596;2023-08-24T14:31:39;27.70;99.90
19206;DHT22;59358;52.134;5.596;2023-08-24T14:34:07;27.70;99.90
19206;DHT22;59358;52.134;5.596;2023-08-24T14:36:34;27.70;99.90
19206;DHT22;59358;52.134;5.596;2023-08-24T14:39:01;27.60;99.90
19206;DHT22;59358;52.134;5.596;2023-08-24T14:41:28;27.40;99.90
19206;DHT22;59358;52.134;5.596;2023-08-24T14:43:56;27.20;99.90
19206;DHT22;59358;52.134;5.596;2023-08-24T14:46:23;27.20;99.90
19206;DHT22;59358;52.134;5.596;2023-08-24T14:48:51;27.10;99.90
19206;DHT22;59358;52.134;5.596;2023-08-24T14:51:18;26.80;99.90
19206;DHT22;59358;52.134;5.596;2023-08-24T14:53:45;26.50;99.90
19206;DHT22;59358;52.134;5.596;2023-08-24T14:56:12;26.20;99.90
19206;DHT22;59358;52.134;5.596;2023-08-24T14:58:39;26.10;99.90
19206;DHT22;59358;52.134;5.596;2023-08-24T15:01:07;25.90;99.90
19206;DHT22;59358;52.134;5.596;2023-08-24T15:03:35;25.90;99.90
19206;DHT22;59358;52.134;5.596;2023-08-24T15:06:03;25.90;99.90
19206;DHT22;59358;52.134;5.596;2023-08-24T15:08:31;25.90;99.90
19206;DHT22;59358;52.134;5.596;2023-08-24T15:10:59;26.00;99.90
19206;DHT22;59358;52.134;5.596;2023-08-24T15:13:28;25.90;99.90
19206;DHT22;59358;52.134;5.596;2023-08-24T15:15:56;25.90;99.90
19206;DHT22;59358;52.134;5.596;2023-08-24T15:18:26;25.70;99.90
19206;DHT22;59358;52.134;5.596;2023-08-24T15:20:53;25.60;99.90
19206;DHT22;59358;52.134;5.596;2023-08-24T15:23:22;25.70;99.90
19206;DHT22;59358;52.134;5.596;2023-08-24T15:25:49;25.80;99.90
19206;DHT22;59358;52.134;5.596;2023-08-24T15:28:16;25.80;99.90
19206;DHT22;59358;52.134;5.596;2023-08-24T15:30:43;25.90;99.90
19206;DHT22;59358;52.134;5.596;2023-08-24T15:33:10;25.90;99.90
19206;DHT22;59358;52.134;5.596;2023-08-24T15:35:40;25.80;99.90